Terminal Aerodrome Forecast
Issued by NWS

Home | Current Version | Previous Version | Text Only | Print | Product List | Glossary On
Versions: 1 2 3 4 5 6 7 8 9 10 11 12 13 14 15 16
000
FTAK31 PAJN 012300
TAFASI
TAF
PASI 012328Z 0200/0224 09008KT P6SM VCSH SCT020 BKN045 OVC060
      TEMPO 0200/0204 -SHRA BKN030 OVC040
     FM020600 13012G20KT P6SM -RA SCT025 OVC040 WS020/14030KT
     FM021000 12015G22KT 5SM RA SCT015 OVC030 WS020/14030KT
     FM021500 12015G25KT 4SM RA SCT015 OVC025 WS020/14035KT
     FM022100 12010G20KT 6SM -RA SCT020 OVC040=

USA.gov is the U.S. government's official web portal to all federal, state and local government web resources and services.